createdAt,value
2018-04-08T00:00:06.074Z,14.26
2018-04-08T00:01:06.054Z,14.34
2018-04-08T00:02:06.035Z,14.33
2018-04-08T00:03:06.018Z,14.19
2018-04-08T00:04:06.000Z,14.28
2018-04-08T00:05:05.992Z,14.22
2018-04-08T00:06:05.966Z,14.26
2018-04-08T00:07:05.947Z,14.18
2018-04-08T00:08:05.931Z,14.18
2018-04-08T00:09:05.910Z,14.19
2018-04-08T00:10:05.893Z,14.05
2018-04-08T00:11:05.876Z,14.12
2018-04-08T00:12:05.866Z,14.08
2018-04-08T00:13:05.841Z,14.04
2018-04-08T00:14:05.822Z,14.05
2018-04-08T00:15:05.808Z,13.98
2018-04-08T00:16:05.784Z,14.03
2018-04-08T00:17:05.766Z,14.07
2018-04-08T00:18:05.748Z,14.07
2018-04-08T00:19:05.763Z,13.97
2018-04-08T00:20:05.715Z,14.05
2018-04-08T00:21:05.695Z,14.01
2018-04-08T00:22:05.688Z,14.07
2018-04-08T00:23:05.659Z,14.03
2018-04-08T00:24:05.643Z,14.01
2018-04-08T00:25:05.623Z,13.95
2018-04-08T00:26:05.606Z,13.93
2018-04-08T00:27:05.589Z,13.93
2018-04-08T00:28:05.595Z,13.87
2018-04-08T00:29:05.552Z,13.86
2018-04-08T00:30:05.533Z,13.76
2018-04-08T00:31:05.516Z,13.80
2018-04-08T00:32:05.499Z,13.79
2018-04-08T00:33:05.478Z,13.86
2018-04-08T00:34:05.471Z,13.79
2018-04-08T00:35:05.443Z,13.79
2018-04-08T00:36:05.426Z,13.71
2018-04-08T00:37:05.404Z,13.68
2018-04-08T00:38:05.387Z,13.75
2018-04-08T00:39:05.368Z,13.68
2018-04-08T00:40:05.352Z,13.73
2018-04-08T00:41:05.334Z,13.65
2018-04-08T00:42:05.317Z,13.67
2018-04-08T00:43:05.299Z,13.76
2018-04-08T00:44:05.278Z,13.62
2018-04-08T00:45:05.262Z,13.71
2018-04-08T00:46:05.243Z,13.62
2018-04-08T00:47:05.225Z,13.64
2018-04-08T00:48:05.207Z,13.62
2018-04-08T00:49:05.188Z,13.68
2018-04-08T00:50:05.169Z,13.67
2018-04-08T00:51:05.150Z,13.60
2018-04-08T00:52:05.133Z,13.62
2018-04-08T00:53:05.114Z,13.60
2018-04-08T00:54:05.094Z,13.61
2018-04-08T00:55:05.078Z,13.60
2018-04-08T00:56:05.062Z,13.55
2018-04-08T00:57:05.042Z,13.50
2018-04-08T00:58:05.022Z,13.54
2018-04-08T00:59:05.006Z,13.49
2018-04-08T01:00:04.986Z,13.52
2018-04-08T01:01:04.968Z,13.47
2018-04-08T01:02:04.949Z,13.46
2018-04-08T01:03:04.932Z,13.46
2018-04-08T01:04:04.913Z,13.49
2018-04-08T01:05:04.895Z,13.36
2018-04-08T01:06:04.875Z,13.39
2018-04-08T01:07:04.859Z,13.43
2018-04-08T01:08:04.839Z,13.40
2018-04-08T01:09:04.819Z,13.40
2018-04-08T01:10:04.805Z,13.45
2018-04-08T01:11:04.785Z,13.39
2018-04-08T01:12:04.788Z,13.33
2018-04-08T01:13:04.750Z,13.33
2018-04-08T01:14:04.729Z,13.39
2018-04-08T01:15:04.714Z,13.36
2018-04-08T01:16:04.694Z,13.33
2018-04-08T01:17:04.674Z,13.30
2018-04-08T01:18:04.654Z,13.33
2018-04-08T01:19:04.636Z,13.33
2018-04-08T01:20:04.619Z,13.31
2018-04-08T01:21:04.600Z,13.31
2018-04-08T01:22:04.581Z,13.27
2018-04-08T01:23:04.563Z,13.21
2018-04-08T01:24:04.545Z,13.33
2018-04-08T01:25:04.525Z,13.28
2018-04-08T01:26:04.529Z,13.28
2018-04-08T01:27:04.487Z,13.20
2018-04-08T01:28:04.470Z,13.20
2018-04-08T01:29:04.451Z,13.17
2018-04-08T01:30:04.435Z,13.24
2018-04-08T01:31:04.415Z,13.16
2018-04-08T01:32:04.398Z,13.27
2018-04-08T01:33:04.377Z,13.12
2018-04-08T01:34:04.360Z,13.23
2018-04-08T01:35:04.339Z,13.19
2018-04-08T01:36:04.326Z,13.16
2018-04-08T01:37:04.303Z,13.16
2018-04-08T01:38:04.284Z,13.13
2018-04-08T01:39:04.268Z,13.16
2018-04-08T01:40:04.247Z,13.06
2018-04-08T01:41:04.241Z,13.03
2018-04-08T01:42:04.209Z,13.03
2018-04-08T01:43:04.191Z,13.06
2018-04-08T01:44:04.172Z,13.08
2018-04-08T01:45:04.165Z,13.08
2018-04-08T01:46:04.135Z,13.16
2018-04-08T01:47:04.116Z,13.08
2018-04-08T01:48:04.098Z,13.09
2018-04-08T01:49:04.078Z,13.09
2018-04-08T01:50:04.061Z,12.99
2018-04-08T01:51:04.041Z,12.99
2018-04-08T01:52:04.023Z,12.98
2018-04-08T01:53:04.007Z,12.87
2018-04-08T01:54:03.987Z,12.93
2018-04-08T01:55:03.966Z,12.93
2018-04-08T01:56:03.948Z,12.86
2018-04-08T01:57:03.944Z,12.87
2018-04-08T01:58:03.913Z,12.84
2018-04-08T01:59:03.892Z,12.83
2018-04-08T02:00:03.874Z,12.86
2018-04-08T02:01:03.862Z,12.86
2018-04-08T02:02:03.835Z,12.86
2018-04-08T02:03:03.825Z,12.84
2018-04-08T02:04:03.798Z,12.91
2018-04-08T02:05:03.780Z,12.80
2018-04-08T02:06:03.760Z,12.81
2018-04-08T02:07:03.741Z,12.75
2018-04-08T02:08:03.722Z,12.80
2018-04-08T02:09:03.703Z,12.80
2018-04-08T02:10:03.686Z,12.70
2018-04-08T02:11:03.671Z,12.68
2018-04-08T02:12:03.647Z,12.76
2018-04-08T02:13:03.627Z,12.69
2018-04-08T02:14:03.609Z,12.80
2018-04-08T02:15:03.591Z,12.66
2018-04-08T02:16:03.573Z,12.65
2018-04-08T02:17:03.553Z,12.68
2018-04-08T02:18:03.534Z,12.68
2018-04-08T02:19:03.518Z,12.68
2018-04-08T02:20:03.497Z,12.75
2018-04-08T02:21:03.476Z,12.58
2018-04-08T02:22:03.457Z,12.62
2018-04-08T02:23:03.440Z,12.63
2018-04-08T02:24:03.421Z,12.57
2018-04-08T02:25:03.401Z,12.69
2018-04-08T02:26:03.384Z,12.66
2018-04-08T02:27:03.365Z,12.68
2018-04-08T02:28:03.346Z,12.62
2018-04-08T02:29:03.334Z,12.58
2018-04-08T02:30:03.308Z,12.63
2018-04-08T02:31:03.287Z,12.68
2018-04-08T02:32:03.272Z,12.62
2018-04-08T02:33:03.251Z,12.61
2018-04-08T02:34:03.229Z,12.54
2018-04-08T02:35:03.213Z,12.51
2018-04-08T02:36:03.195Z,12.53
2018-04-08T02:37:03.174Z,12.57
2018-04-08T02:38:03.155Z,12.61
2018-04-08T02:39:03.136Z,12.57
2018-04-08T02:40:03.120Z,12.55
2018-04-08T02:41:03.098Z,12.57
2018-04-08T02:42:03.082Z,12.50
2018-04-08T02:43:03.059Z,12.55
2018-04-08T02:44:03.040Z,12.51
2018-04-08T02:45:03.020Z,12.61
2018-04-08T02:46:03.001Z,12.53
2018-04-08T02:47:02.983Z,12.44
2018-04-08T02:48:02.966Z,12.47
2018-04-08T02:49:02.948Z,12.40
2018-04-08T02:50:02.926Z,12.57
2018-04-08T02:51:02.906Z,12.44
2018-04-08T02:52:02.888Z,12.40
2018-04-08T02:53:02.868Z,12.39
2018-04-08T02:54:02.846Z,12.36
2018-04-08T02:55:02.829Z,12.44
2018-04-08T02:56:02.810Z,12.43
2018-04-08T02:57:02.795Z,12.43
2018-04-08T02:58:02.771Z,12.44
2018-04-08T02:59:02.762Z,12.37
2018-04-08T03:00:02.734Z,12.36
2018-04-08T03:01:02.714Z,12.36
2018-04-08T03:02:02.706Z,12.39
2018-04-08T03:03:02.675Z,12.37
2018-04-08T03:04:02.657Z,12.40
2018-04-08T03:05:02.636Z,12.37
2018-04-08T03:06:02.616Z,12.39
2018-04-08T03:07:02.602Z,12.29
2018-04-08T03:08:02.580Z,12.30
2018-04-08T03:09:02.561Z,12.29
2018-04-08T03:10:02.544Z,12.36
2018-04-08T03:11:02.522Z,12.26
2018-04-08T03:12:02.504Z,12.28
2018-04-08T03:13:02.483Z,12.33
2018-04-08T03:14:02.466Z,12.25
2018-04-08T03:15:02.445Z,12.25
2018-04-08T03:16:02.446Z,12.28
2018-04-08T03:17:02.405Z,12.25
2018-04-08T03:18:02.385Z,12.30
2018-04-08T03:19:02.369Z,12.29
2018-04-08T03:20:02.367Z,12.20
2018-04-08T03:21:02.328Z,12.23
2018-04-08T03:22:02.308Z,12.20
2018-04-08T03:23:02.291Z,12.21
2018-04-08T03:24:02.272Z,12.23
2018-04-08T03:25:02.250Z,12.12
2018-04-08T03:26:02.233Z,12.18
2018-04-08T03:27:02.213Z,12.17
2018-04-08T03:28:02.193Z,12.20
2018-04-08T03:29:02.174Z,12.15
2018-04-08T03:30:02.166Z,12.17
2018-04-08T03:31:02.135Z,12.18
2018-04-08T03:32:02.118Z,12.17
2018-04-08T03:33:02.102Z,12.15
2018-04-08T03:34:02.077Z,12.17
2018-04-08T03:35:02.058Z,12.17
2018-04-08T03:36:02.038Z,12.17
2018-04-08T03:37:02.019Z,12.14
2018-04-08T03:38:01.999Z,12.15
2018-04-08T03:39:01.981Z,12.17
2018-04-08T03:40:01.991Z,12.14
2018-04-08T03:41:01.940Z,12.17
2018-04-08T03:42:01.921Z,12.20
2018-04-08T03:43:01.902Z,12.15
2018-04-08T03:44:01.882Z,12.17
2018-04-08T03:45:01.890Z,12.12
2018-04-08T03:46:01.842Z,12.12
2018-04-08T03:47:01.823Z,12.12
2018-04-08T03:48:01.803Z,12.14
2018-04-08T03:49:01.785Z,12.21
2018-04-08T03:50:01.765Z,12.21
2018-04-08T03:51:01.745Z,12.17
2018-04-08T03:52:01.725Z,12.20
2018-04-08T03:53:01.704Z,12.18
2018-04-08T03:54:01.688Z,12.23
2018-04-08T03:55:01.667Z,12.23
2018-04-08T03:56:01.648Z,12.30
2018-04-08T03:57:01.628Z,12.26
2018-04-08T03:58:01.609Z,12.28
2018-04-08T03:59:01.591Z,12.30
2018-04-08T04:00:01.570Z,12.25
2018-04-08T04:01:01.551Z,12.29
2018-04-08T04:02:01.532Z,12.33
2018-04-08T04:03:01.522Z,12.29
2018-04-08T04:04:01.497Z,12.29
2018-04-08T04:05:01.479Z,12.26
2018-04-08T04:06:01.454Z,12.26
2018-04-08T04:07:01.434Z,12.23
2018-04-08T04:08:01.417Z,12.26
2018-04-08T04:09:01.396Z,12.20
2018-04-08T04:10:01.391Z,12.23
2018-04-08T04:11:01.358Z,12.25
2018-04-08T04:12:01.340Z,12.17
2018-04-08T04:13:01.318Z,12.23
2018-04-08T04:14:01.298Z,12.15
2018-04-08T04:15:01.278Z,12.21
2018-04-08T04:16:01.261Z,12.23
2018-04-08T04:17:01.240Z,12.18
2018-04-08T04:18:01.220Z,12.23
2018-04-08T04:19:01.202Z,12.20
2018-04-08T04:20:01.182Z,12.26
2018-04-08T04:21:01.161Z,12.18
2018-04-08T04:22:01.144Z,12.25
2018-04-08T04:23:01.126Z,12.21
2018-04-08T04:24:01.107Z,12.20
2018-04-08T04:25:01.085Z,12.15
2018-04-08T04:26:01.064Z,12.18
2018-04-08T04:27:01.051Z,12.18
2018-04-08T04:28:01.028Z,12.15
2018-04-08T04:29:01.010Z,12.20
2018-04-08T04:30:00.987Z,12.20
2018-04-08T04:31:00.967Z,12.20
2018-04-08T04:32:00.953Z,12.23
2018-04-08T04:33:00.933Z,12.14
2018-04-08T04:34:00.910Z,12.15
2018-04-08T04:35:00.889Z,12.20
2018-04-08T04:36:00.872Z,12.25
2018-04-08T04:37:00.852Z,12.26
2018-04-08T04:38:00.832Z,12.23
2018-04-08T04:39:00.812Z,12.21
2018-04-08T04:40:00.794Z,12.26
2018-04-08T04:41:00.773Z,12.25
2018-04-08T04:42:00.755Z,12.23
2018-04-08T04:43:00.749Z,12.26
2018-04-08T04:44:00.716Z,12.25
2018-04-08T04:45:00.695Z,12.26
2018-04-08T04:46:00.675Z,12.25
2018-04-08T04:47:00.656Z,12.23
2018-04-08T04:48:00.637Z,12.28
2018-04-08T04:49:00.616Z,12.23
2018-04-08T04:50:00.599Z,12.21
2018-04-08T04:51:00.578Z,12.18
2018-04-08T04:52:00.561Z,12.20
2018-04-08T04:53:00.541Z,12.23
2018-04-08T04:54:00.524Z,12.15
2018-04-08T04:55:00.505Z,12.17
2018-04-08T04:56:00.484Z,12.18
2018-04-08T04:57:00.461Z,12.17
2018-04-08T04:58:00.443Z,12.17
2018-04-08T04:59:00.424Z,12.20
2018-04-08T05:00:00.406Z,12.18
2018-04-08T05:01:00.386Z,12.21
2018-04-08T05:02:00.364Z,12.15
2018-04-08T05:03:00.345Z,12.23
2018-04-08T05:04:00.326Z,12.20
2018-04-08T05:05:00.305Z,12.23
2018-04-08T05:06:00.286Z,12.12
2018-04-08T05:07:00.266Z,12.12
2018-04-08T05:08:00.251Z,12.15
2018-04-08T05:09:00.226Z,12.23
2018-04-08T05:10:00.217Z,12.25
2018-04-08T05:11:00.191Z,12.26
2018-04-08T05:12:00.171Z,12.20
2018-04-08T05:13:00.150Z,12.28
2018-04-08T05:14:00.130Z,12.20
2018-04-08T05:15:00.113Z,12.36
2018-04-08T05:16:00.096Z,12.40
2018-04-08T05:17:00.072Z,12.44
2018-04-08T05:18:00.053Z,12.39
2018-04-08T05:19:00.034Z,12.47
2018-04-08T05:20:00.014Z,12.51
2018-04-08T05:20:59.998Z,12.57
2018-04-08T05:22:00.024Z,12.55
2018-04-08T05:22:59.956Z,12.55
2018-04-08T05:23:59.937Z,12.54
2018-04-08T05:24:59.917Z,12.57
2018-04-08T05:25:59.901Z,12.70
2018-04-08T05:26:59.879Z,12.63
2018-04-08T05:27:59.863Z,12.70
2018-04-08T05:28:59.839Z,12.80
2018-04-08T05:29:59.821Z,12.81
2018-04-08T05:30:59.802Z,12.80
2018-04-08T05:31:59.782Z,12.88
2018-04-08T05:32:59.762Z,12.91
2018-04-08T05:33:59.744Z,12.88
2018-04-08T05:34:59.742Z,12.99
2018-04-08T05:35:59.707Z,13.01
2018-04-08T05:36:59.686Z,13.01
2018-04-08T05:37:59.668Z,13.08
2018-04-08T05:38:59.694Z,13.08
2018-04-08T05:39:59.630Z,13.16
2018-04-08T05:40:59.633Z,13.19
2018-04-08T05:41:59.589Z,13.23
2018-04-08T05:42:59.572Z,13.30
2018-04-08T05:43:59.555Z,13.31
2018-04-08T05:44:59.534Z,13.40
2018-04-08T05:45:59.514Z,13.40
2018-04-08T05:46:59.497Z,13.43
2018-04-08T05:47:59.526Z,13.46
2018-04-08T05:48:59.493Z,13.54
2018-04-08T05:49:59.438Z,13.54
2018-04-08T05:50:59.421Z,13.62
2018-04-08T05:51:59.402Z,13.55
2018-04-08T05:52:59.383Z,13.62
2018-04-08T05:53:59.365Z,13.64
2018-04-08T05:54:59.344Z,13.62
2018-04-08T05:55:59.326Z,13.64
2018-04-08T05:56:59.307Z,13.64
2018-04-08T05:57:59.295Z,13.61
2018-04-08T05:58:59.270Z,13.75
2018-04-08T05:59:59.251Z,13.71
2018-04-08T06:00:59.233Z,13.75
2018-04-08T06:01:59.213Z,13.82
2018-04-08T06:02:59.195Z,13.83
2018-04-08T06:03:59.178Z,13.85
2018-04-08T06:04:59.172Z,13.86
2018-04-08T06:05:59.139Z,13.93
2018-04-08T06:06:59.121Z,13.94
2018-04-08T06:07:59.103Z,13.94
2018-04-08T06:08:59.084Z,13.98
2018-04-08T06:09:59.065Z,14.00
2018-04-08T06:10:59.067Z,14.04
2018-04-08T06:11:59.028Z,14.12
2018-04-08T06:12:59.008Z,14.18
2018-04-08T06:13:58.990Z,14.18
2018-04-08T06:14:58.972Z,14.11
2018-04-08T06:15:58.954Z,14.22
2018-04-08T06:16:58.937Z,14.18
2018-04-08T06:17:58.920Z,14.22
2018-04-08T06:18:58.898Z,14.28
2018-04-08T06:19:58.883Z,14.28
2018-04-08T06:20:58.860Z,14.26
2018-04-08T06:21:58.841Z,14.22
2018-04-08T06:22:58.821Z,14.30
2018-04-08T06:23:58.806Z,14.26
2018-04-08T06:24:58.795Z,14.30
2018-04-08T06:25:58.767Z,14.34
2018-04-08T06:26:58.760Z,14.30
2018-04-08T06:27:58.732Z,14.41
2018-04-08T06:28:58.713Z,14.44
2018-04-08T06:29:58.693Z,14.45
2018-04-08T06:30:58.675Z,14.45
2018-04-08T06:31:58.658Z,14.40
2018-04-08T06:32:58.637Z,14.51
2018-04-08T06:33:58.621Z,14.56
2018-04-08T06:34:58.604Z,14.52
2018-04-08T06:35:58.590Z,14.62
2018-04-08T06:36:58.566Z,14.66
2018-04-08T06:37:58.552Z,14.67
2018-04-08T06:38:58.533Z,14.67
2018-04-08T06:39:58.525Z,14.73
2018-04-08T06:40:58.502Z,14.73
2018-04-08T06:41:58.477Z,14.79
2018-04-08T06:42:58.458Z,14.78
2018-04-08T06:43:58.438Z,14.77
2018-04-08T06:44:58.420Z,14.85
2018-04-08T06:45:58.400Z,14.92
2018-04-08T06:46:58.389Z,14.96
2018-04-08T06:47:58.368Z,14.93
2018-04-08T06:48:58.373Z,14.93
2018-04-08T06:49:58.330Z,14.94
2018-04-08T06:50:58.313Z,14.96
2018-04-08T06:51:58.331Z,15.00
2018-04-08T06:52:58.275Z,15.08
2018-04-08T06:53:58.258Z,14.97
2018-04-08T06:54:58.241Z,15.15
2018-04-08T06:55:58.223Z,15.18
2018-04-08T06:56:58.303Z,15.10
2018-04-08T06:57:58.193Z,15.25
2018-04-08T06:58:58.197Z,15.27
2018-04-08T06:59:58.152Z,15.33
2018-04-08T07:00:58.133Z,15.32
2018-04-08T07:01:58.116Z,15.32
2018-04-08T07:02:58.101Z,15.37
2018-04-08T07:03:58.135Z,15.39
2018-04-08T07:04:58.061Z,15.44
2018-04-08T07:05:58.074Z,15.48
2018-04-08T07:06:58.027Z,15.57
2018-04-08T07:07:58.010Z,15.47
2018-04-08T07:08:58.032Z,15.48
2018-04-08T07:09:58.055Z,15.45
2018-04-08T07:10:57.976Z,15.45
2018-04-08T07:11:57.952Z,15.51
2018-04-08T07:12:57.920Z,15.57
2018-04-08T07:13:57.978Z,15.55
2018-04-08T07:14:57.891Z,15.51
2018-04-08T07:15:57.877Z,15.55
2018-04-08T07:16:57.894Z,15.65
2018-04-08T07:17:57.834Z,15.59
2018-04-08T07:18:57.816Z,15.62
2018-04-08T07:19:57.800Z,15.63
2018-04-08T07:20:57.781Z,15.65
2018-04-08T07:21:57.767Z,15.69
2018-04-08T07:22:57.745Z,15.70
2018-04-08T07:23:57.779Z,15.67
2018-04-08T07:24:57.764Z,15.65
2018-04-08T07:25:57.697Z,15.67
2018-04-08T07:26:57.689Z,15.67
2018-04-08T07:27:57.716Z,15.70
2018-04-08T07:28:57.644Z,15.70
2018-04-08T07:29:57.624Z,15.65
2018-04-08T07:30:57.605Z,15.66
2018-04-08T07:31:57.588Z,15.65
2018-04-08T07:32:57.570Z,15.73
2018-04-08T07:33:57.559Z,15.69
2018-04-08T07:34:57.538Z,15.67
2018-04-08T07:35:57.524Z,15.73
2018-04-08T07:36:57.550Z,15.67
2018-04-08T07:37:57.494Z,15.73
2018-04-08T07:38:58.029Z,15.73
2018-04-08T07:39:57.472Z,15.78
2018-04-08T07:40:57.501Z,15.87
2018-04-08T07:41:57.414Z,15.87
2018-04-08T07:42:57.398Z,15.88
2018-04-08T07:43:57.380Z,15.96
2018-04-08T07:44:57.363Z,15.99
2018-04-08T07:45:57.346Z,16.06
2018-04-08T07:46:57.331Z,16.12
2018-04-08T07:47:57.316Z,16.16
2018-04-08T07:48:57.295Z,16.22
2018-04-08T07:49:59.124Z,16.28
2018-04-08T07:50:57.260Z,16.32
2018-04-08T07:51:57.244Z,16.37
2018-04-08T07:52:57.224Z,16.46
2018-04-08T07:53:57.209Z,16.49
2018-04-08T07:54:57.224Z,16.57
2018-04-08T07:55:57.178Z,16.51
2018-04-08T07:56:57.160Z,16.64
2018-04-08T07:57:57.155Z,16.66
2018-04-08T07:58:58.042Z,16.68
2018-04-08T07:59:57.105Z,16.87
2018-04-08T08:00:57.135Z,16.89
2018-04-08T08:01:57.098Z,17.04
2018-04-08T08:02:57.067Z,17.07
2018-04-08T08:03:57.081Z,17.20
2018-04-08T08:04:57.038Z,17.27
2018-04-08T08:05:57.013Z,17.39
2018-04-08T08:06:56.990Z,17.49
2018-04-08T08:07:56.986Z,17.54
2018-04-08T08:08:56.969Z,17.60
2018-04-08T08:09:56.938Z,17.52
2018-04-08T08:10:56.923Z,17.65
2018-04-08T08:11:56.906Z,17.68
2018-04-08T08:12:56.903Z,17.73
2018-04-08T08:13:56.872Z,17.75
2018-04-08T08:14:56.856Z,17.78
2018-04-08T08:15:56.839Z,17.86
2018-04-08T08:16:56.823Z,17.86
2018-04-08T08:17:56.859Z,17.86
2018-04-08T08:18:56.792Z,18.00
2018-04-08T08:19:56.777Z,18.02
2018-04-08T08:20:57.536Z,18.11
2018-04-08T08:21:56.744Z,18.08
2018-04-08T08:22:56.760Z,18.16
2018-04-08T08:23:56.711Z,18.16
2018-04-08T08:24:56.693Z,18.26
2018-04-08T08:25:56.680Z,18.34
2018-04-08T08:26:56.665Z,18.36
2018-04-08T08:27:56.645Z,18.36
2018-04-08T08:28:56.676Z,18.37
2018-04-08T08:29:56.618Z,18.43
2018-04-08T08:30:56.597Z,18.43
2018-04-08T08:31:56.605Z,18.52
2018-04-08T08:32:56.565Z,18.61
2018-04-08T08:33:56.584Z,18.73
2018-04-08T08:34:56.534Z,18.81
2018-04-08T08:35:56.523Z,18.89
2018-04-08T08:36:56.558Z,18.83
2018-04-08T08:37:56.486Z,18.79
2018-04-08T08:38:56.499Z,18.88
2018-04-08T08:39:56.459Z,19.12
2018-04-08T08:40:56.441Z,19.12
2018-04-08T08:41:56.423Z,19.17
2018-04-08T08:42:56.408Z,19.16
2018-04-08T08:43:56.407Z,19.26
2018-04-08T08:44:56.378Z,19.48
2018-04-08T08:45:56.439Z,19.53
2018-04-08T08:46:56.371Z,19.57
2018-04-08T08:47:56.332Z,19.70
2018-04-08T08:48:56.321Z,19.77
2018-04-08T08:49:56.301Z,19.77
2018-04-08T08:50:56.300Z,19.87
2018-04-08T08:51:56.347Z,19.87
2018-04-08T08:52:56.262Z,19.94
2018-04-08T08:53:56.252Z,19.93
2018-04-08T08:54:56.305Z,19.92
2018-04-08T08:55:56.278Z,20.02
2018-04-08T08:56:56.204Z,19.99
2018-04-08T08:57:57.127Z,20.10
2018-04-08T08:58:56.239Z,20.11
2018-04-08T08:59:56.210Z,20.07
2018-04-08T09:00:56.139Z,20.24
2018-04-08T09:01:56.151Z,20.22
2018-04-08T09:02:56.104Z,20.27
2018-04-08T09:03:56.146Z,20.29
2018-04-08T09:04:56.133Z,20.24
2018-04-08T09:05:56.059Z,20.40
2018-04-08T09:06:56.077Z,20.48
2018-04-08T09:07:56.725Z,20.40
2018-04-08T09:08:56.068Z,20.48
2018-04-08T09:09:56.061Z,20.60
2018-04-08T09:10:55.993Z,20.58
2018-04-08T09:11:55.982Z,20.58
2018-04-08T09:12:55.987Z,20.46
2018-04-08T09:13:55.983Z,20.53
2018-04-08T09:14:55.930Z,20.59
2018-04-08T09:15:55.915Z,20.59
2018-04-08T09:16:55.914Z,20.49
2018-04-08T09:17:55.883Z,20.60
2018-04-08T09:18:55.918Z,20.64
2018-04-08T09:19:55.860Z,20.63
2018-04-08T09:20:55.908Z,20.68
2018-04-08T09:21:55.827Z,20.63
2018-04-08T09:22:55.813Z,20.74
2018-04-08T09:23:55.799Z,20.83
2018-04-08T09:24:55.783Z,20.77
2018-04-08T09:25:55.769Z,20.92
2018-04-08T09:26:55.756Z,20.78
2018-04-08T09:27:55.741Z,20.74
2018-04-08T09:28:55.727Z,20.86
2018-04-08T09:29:55.714Z,20.80
2018-04-08T09:30:55.721Z,20.93
2018-04-08T09:31:55.694Z,20.93
2018-04-08T09:32:55.669Z,20.92
2018-04-08T09:33:55.668Z,20.95
2018-04-08T09:34:55.640Z,21.07
2018-04-08T09:35:55.628Z,21.14
2018-04-08T09:36:55.626Z,21.07
2018-04-08T09:37:55.601Z,21.10
2018-04-08T09:38:55.586Z,21.13
2018-04-08T09:39:55.572Z,21.14
2018-04-08T09:40:55.563Z,21.19
2018-04-08T09:41:55.542Z,21.17
2018-04-08T09:42:55.526Z,21.28
2018-04-08T09:43:55.574Z,21.38
2018-04-08T09:44:55.500Z,21.41
2018-04-08T09:45:55.601Z,21.54
2018-04-08T09:46:55.524Z,21.63
2018-04-08T09:47:55.479Z,21.66
2018-04-08T09:48:55.445Z,21.77
2018-04-08T09:49:55.432Z,21.66
2018-04-08T09:50:55.416Z,21.85
2018-04-08T09:51:55.411Z,21.96
2018-04-08T09:52:55.415Z,22.01
2018-04-08T09:53:55.379Z,22.01
2018-04-08T09:54:55.398Z,22.01
2018-04-08T09:55:55.351Z,22.01
2018-04-08T09:56:55.335Z,22.06
2018-04-08T09:57:55.322Z,22.21
2018-04-08T09:58:55.307Z,22.31
2018-04-08T09:59:55.295Z,22.43
2018-04-08T10:00:55.280Z,22.43
2018-04-08T10:01:55.271Z,22.62
2018-04-08T10:02:55.258Z,22.61
2018-04-08T10:03:55.248Z,22.80
2018-04-08T10:04:55.228Z,22.65
2018-04-08T10:05:55.215Z,22.74
2018-04-08T10:06:55.202Z,22.78
2018-04-08T10:07:55.191Z,22.92
2018-04-08T10:08:55.176Z,23.13
2018-04-08T10:09:55.162Z,23.49
2018-04-08T10:10:55.157Z,23.54
2018-04-08T10:11:55.147Z,23.52
2018-04-08T10:12:55.127Z,23.77
2018-04-08T10:13:55.114Z,23.63
2018-04-08T10:14:55.102Z,23.42
2018-04-08T10:15:55.089Z,23.49
2018-04-08T10:16:55.078Z,23.47
2018-04-08T10:17:55.067Z,23.58
2018-04-08T10:18:55.063Z,23.47
2018-04-08T10:19:55.083Z,23.49
2018-04-08T10:20:55.072Z,23.59
2018-04-08T10:21:55.020Z,23.51
2018-04-08T10:22:55.011Z,23.52
2018-04-08T10:23:54.996Z,23.62
2018-04-08T10:24:55.021Z,23.63
2018-04-08T10:25:55.640Z,23.62
2018-04-08T10:26:54.963Z,23.54
2018-04-08T10:27:54.951Z,23.39
2018-04-08T10:28:54.943Z,23.52
2018-04-08T10:29:54.928Z,23.49
2018-04-08T10:30:54.926Z,23.34
2018-04-08T10:31:54.910Z,23.33
2018-04-08T10:32:54.896Z,23.21
2018-04-08T10:33:54.885Z,23.26
2018-04-08T10:34:54.873Z,23.26
2018-04-08T10:35:54.862Z,23.20
2018-04-08T10:36:54.859Z,23.42
2018-04-08T10:37:54.841Z,23.91
2018-04-08T10:38:54.830Z,24.10
2018-04-08T10:39:54.826Z,24.14
2018-04-08T10:40:54.805Z,24.14
2018-04-08T10:41:54.803Z,24.21
2018-04-08T10:42:54.853Z,24.25
2018-04-08T10:43:54.819Z,24.07
2018-04-08T10:44:54.823Z,24.19
2018-04-08T10:45:54.758Z,24.18
2018-04-08T10:46:54.741Z,24.04
2018-04-08T10:47:54.749Z,24.11
2018-04-08T10:49:56.574Z,23.94
2018-04-08T10:52:51.881Z,23.85
2018-04-08T10:53:49.646Z,23.47
2018-04-08T10:55:42.918Z,23.45
2018-04-08T10:58:36.244Z,23.44
2018-04-08T10:59:36.182Z,23.66
2018-04-08T11:01:30.569Z,23.63
2018-04-08T11:04:25.556Z,24.32
2018-04-08T11:05:25.489Z,25.16
2018-04-08T11:07:18.820Z,25.73
2018-04-08T11:08:18.735Z,26.10
2018-04-08T11:10:12.153Z,26.60
2018-04-08T11:11:12.076Z,27.28
2018-04-08T11:13:10.412Z,28.50
2018-04-08T11:14:10.351Z,28.84
2018-04-08T11:16:03.713Z,29.71
2018-04-08T11:17:03.700Z,30.21
2018-04-08T11:18:57.111Z,30.92
2018-04-08T11:19:57.052Z,31.62
2018-04-08T11:21:50.423Z,32.73
2018-04-08T11:22:50.420Z,32.66
2018-04-08T11:24:44.828Z,33.23
2018-04-08T11:25:44.772Z,33.92
2018-04-08T11:27:38.145Z,34.14
2018-04-08T11:28:38.134Z,33.29
2018-04-08T11:30:31.664Z,34.10
2018-04-08T11:31:31.623Z,34.59
2018-04-08T11:33:25.030Z,34.19
2018-04-08T11:34:24.978Z,34.62
2018-04-08T11:36:18.354Z,34.44
2018-04-08T11:37:18.350Z,34.60
2018-04-08T11:39:11.771Z,34.28
2018-04-08T11:40:11.723Z,34.14
2018-04-08T11:42:05.103Z,34.47
2018-04-08T11:43:05.096Z,34.81
2018-04-08T11:44:58.607Z,34.79
2018-04-08T11:45:58.492Z,34.83
2018-04-08T11:47:51.853Z,34.63
2018-04-08T11:48:51.860Z,34.28
2018-04-08T11:50:45.381Z,34.71
2018-04-08T11:51:45.299Z,35.30
2018-04-08T11:53:38.745Z,34.70
2018-04-08T11:54:38.793Z,34.06
2018-04-08T11:56:32.115Z,33.22
2018-04-08T11:57:32.066Z,33.26
2018-04-08T11:59:25.515Z,34.13
2018-04-08T12:00:25.482Z,34.63
2018-04-08T12:02:18.838Z,33.95
2018-04-08T12:03:18.885Z,34.71
2018-04-08T12:05:12.265Z,35.32
2018-04-08T12:06:12.256Z,34.83
2018-04-08T12:08:06.602Z,34.69
2018-04-08T12:09:06.597Z,34.82
2018-04-08T12:11:00.076Z,34.96
2018-04-08T12:11:59.997Z,35.78
2018-04-08T12:13:53.412Z,35.81
2018-04-08T12:14:53.403Z,35.98
2018-04-08T12:16:46.764Z,35.38
2018-04-08T12:17:46.756Z,35.53
2018-04-08T12:19:40.182Z,34.48
2018-04-08T12:20:40.137Z,34.47
2018-04-08T12:22:33.530Z,35.04
2018-04-08T12:23:33.530Z,35.13
2018-04-08T12:25:31.698Z,35.76
2018-04-08T12:26:32.536Z,36.51
2018-04-08T12:28:25.026Z,37.15
2018-04-08T12:29:25.034Z,37.85
2018-04-08T12:31:18.509Z,36.97
2018-04-08T12:32:18.453Z,37.21
2018-04-08T12:34:12.945Z,35.97
2018-04-08T12:35:12.790Z,35.87
2018-04-08T12:37:06.225Z,34.62
2018-04-08T12:38:06.175Z,34.10
2018-04-08T12:39:59.652Z,32.83
2018-04-08T12:41:00.162Z,31.70
2018-04-08T12:42:52.970Z,30.71
2018-04-08T12:43:52.942Z,30.32
2018-04-08T12:45:47.363Z,29.81
2018-04-08T12:46:47.313Z,29.86
2018-04-08T12:48:40.688Z,30.33
2018-04-08T12:49:40.740Z,30.56
2018-04-08T12:51:35.104Z,31.23
2018-04-08T12:52:35.671Z,31.52
2018-04-08T12:54:29.538Z,31.70
2018-04-08T12:55:28.424Z,31.93
2018-04-08T12:57:21.814Z,32.11
2018-04-08T12:58:21.790Z,32.04
2018-04-08T13:00:15.207Z,32.15
2018-04-08T13:01:15.282Z,32.37
2018-04-08T13:03:08.688Z,32.24
2018-04-08T13:04:08.527Z,32.29
2018-04-08T13:06:02.043Z,32.16
2018-04-08T13:07:01.895Z,32.71
2018-04-08T13:08:55.323Z,33.09
2018-04-08T13:09:55.289Z,32.83
2018-04-08T13:11:48.683Z,32.94
2018-04-08T13:12:48.631Z,33.61
2018-04-08T13:14:43.051Z,34.19
2018-04-08T13:15:42.995Z,34.70
2018-04-08T13:17:36.369Z,36.55
2018-04-08T13:18:36.362Z,37.36
2018-04-08T13:20:30.204Z,38.46
2018-04-08T13:21:29.736Z,38.88
2018-04-08T13:23:23.426Z,39.41
2018-04-08T13:24:23.121Z,39.59
2018-04-08T13:26:16.660Z,39.82
2018-04-08T13:27:16.507Z,39.57
2018-04-08T13:29:09.914Z,39.57
2018-04-08T13:30:09.876Z,39.68
2018-04-08T13:32:03.303Z,40.14
2018-04-08T13:33:03.253Z,40.54
2018-04-08T13:34:57.679Z,40.46
2018-04-08T13:35:57.630Z,40.14
2018-04-08T13:37:51.657Z,40.88
2018-04-08T13:38:51.662Z,41.24
2018-04-08T13:40:45.087Z,41.27
2018-04-08T13:41:45.036Z,40.32
2018-04-08T13:43:39.602Z,39.41
2018-04-08T13:44:39.473Z,38.57
2018-04-08T13:46:32.859Z,38.54
2018-04-08T13:47:32.811Z,38.54
2018-04-08T13:49:26.255Z,38.50
2018-04-08T13:50:26.254Z,38.82
2018-04-08T13:52:19.720Z,39.91